createdAt,value
2023-08-08T00:04:38.715Z,15.02
2023-08-08T00:14:41.723Z,15.05
2023-08-08T00:24:44.733Z,15.09
2023-08-08T00:34:47.799Z,15.07
2023-08-08T00:44:50.853Z,15.04
2023-08-08T00:54:54.115Z,14.99
2023-08-08T01:04:58.206Z,14.92
2023-08-08T01:15:01.836Z,14.81
2023-08-08T01:25:07.442Z,14.66
2023-08-08T01:35:11.977Z,14.49
2023-08-08T01:45:15.851Z,14.33
2023-08-08T01:55:19.356Z,14.21
2023-08-08T02:05:22.736Z,14.08
2023-08-08T02:15:25.862Z,13.96
2023-08-08T02:25:28.951Z,13.87
2023-08-08T02:35:32.010Z,13.79
2023-08-08T02:45:35.216Z,13.87
2023-08-08T02:55:38.433Z,13.73
2023-08-08T03:05:41.783Z,13.65
2023-08-08T03:15:44.917Z,13.62
2023-08-08T03:25:48.200Z,13.61
2023-08-08T03:35:51.693Z,13.54
2023-08-08T03:45:55.204Z,13.45
2023-08-08T03:55:58.284Z,13.44
2023-08-08T04:06:02.685Z,13.44
2023-08-08T04:16:05.878Z,13.42
2023-08-08T04:26:08.916Z,13.50
2023-08-08T04:36:12.430Z,13.67
2023-08-08T04:46:15.514Z,13.94
2023-08-08T04:56:18.659Z,14.14
2023-08-08T05:06:21.683Z,14.28
2023-08-08T05:16:25.160Z,14.47
2023-08-08T05:26:28.335Z,14.64
2023-08-08T05:36:31.310Z,14.80
2023-08-08T05:46:34.535Z,14.90
2023-08-08T05:56:38.396Z,14.95
2023-08-08T06:06:41.903Z,15.17
2023-08-08T06:16:44.930Z,15.42
2023-08-08T06:26:47.952Z,15.60
2023-08-08T06:36:50.982Z,15.82
2023-08-08T06:46:54.039Z,16.08
2023-08-08T06:56:58.880Z,16.26
2023-08-08T07:07:03.924Z,16.29
2023-08-08T07:17:07.256Z,16.35
2023-08-08T07:27:10.287Z,16.43
2023-08-08T07:37:14.740Z,16.57
2023-08-08T07:47:17.798Z,16.62
2023-08-08T07:57:20.763Z,16.65
2023-08-08T08:07:24.324Z,17.13
2023-08-08T08:17:28.409Z,17.59
2023-08-08T08:27:31.668Z,17.77
2023-08-08T08:37:35.577Z,18.01
2023-08-08T08:47:42.174Z,18.16
2023-08-08T08:57:46.452Z,18.21
2023-08-08T09:07:49.463Z,18.32
2023-08-08T09:17:53.115Z,18.47
2023-08-08T09:27:56.937Z,18.70
2023-08-08T09:38:00.014Z,18.84
2023-08-08T09:48:03.106Z,18.95
2023-08-08T09:58:08.703Z,19.36
2023-08-08T10:08:12.193Z,19.27
2023-08-08T10:18:28.626Z,18.93
2023-08-08T10:28:34.450Z,18.54
2023-08-08T10:38:45.532Z,18.53
2023-08-08T10:48:52.999Z,18.60
2023-08-08T10:58:55.946Z,18.99
2023-08-08T11:08:59.287Z,18.96
2023-08-08T11:19:02.923Z,18.78
2023-08-08T11:29:06.883Z,18.69
2023-08-08T11:39:11.124Z,18.95
2023-08-08T11:49:17.630Z,19.29
2023-08-08T11:59:21.557Z,19.35
2023-08-08T12:09:29.120Z,19.65
2023-08-08T12:19:32.192Z,20.16
2023-08-08T12:29:35.297Z,20.85
2023-08-08T12:39:38.299Z,21.80
2023-08-08T12:49:41.238Z,21.63
2023-08-08T12:59:44.264Z,21.01
2023-08-08T13:09:47.363Z,20.64
2023-08-08T13:19:50.326Z,20.54
2023-08-08T13:29:53.471Z,20.79
2023-08-08T13:39:56.450Z,20.74
2023-08-08T13:49:59.440Z,20.39
2023-08-08T14:00:03.505Z,20.42
2023-08-08T14:10:11.620Z,21.13
2023-08-08T14:20:14.929Z,21.21
2023-08-08T14:30:18.214Z,21.49
2023-08-08T14:40:21.184Z,21.43
2023-08-08T14:50:24.137Z,21.66
2023-08-08T15:00:27.318Z,21.86
2023-08-08T15:10:30.357Z,24.19
2023-08-08T15:20:33.369Z,25.37
2023-08-08T15:30:36.404Z,24.25
2023-08-08T15:40:41.442Z,23.64
2023-08-08T15:50:44.924Z,23.35
2023-08-08T16:00:47.979Z,23.71
2023-08-08T16:10:51.045Z,23.12
2023-08-08T16:20:54.043Z,23.13
2023-08-08T16:30:58.509Z,22.09
2023-08-08T16:41:01.621Z,21.47
2023-08-08T16:51:04.711Z,21.27
2023-08-08T17:01:08.074Z,21.08
2023-08-08T17:11:11.384Z,20.94
2023-08-08T17:21:14.501Z,20.72
2023-08-08T17:31:18.136Z,20.45
2023-08-08T17:41:21.094Z,20.18
2023-08-08T17:51:24.103Z,19.82
2023-08-08T18:01:27.337Z,19.44
2023-08-08T18:11:30.341Z,19.07
2023-08-08T18:21:33.410Z,17.82
2023-08-08T18:31:36.384Z,16.91
2023-08-08T18:41:39.388Z,16.53
2023-08-08T18:51:42.331Z,16.31
2023-08-08T19:01:45.432Z,16.24
2023-08-08T19:11:48.427Z,15.53
2023-08-08T19:21:53.406Z,14.42
2023-08-08T19:31:56.376Z,14.12
2023-08-08T19:42:00.389Z,14.09
2023-08-08T19:52:03.903Z,14.12
2023-08-08T20:02:07.445Z,14.21
2023-08-08T20:12:10.462Z,14.27
2023-08-08T20:22:13.403Z,14.36
2023-08-08T20:32:16.432Z,14.47
2023-08-08T20:42:19.408Z,14.53
2023-08-08T20:52:22.977Z,14.57
2023-08-08T21:02:26.159Z,14.64
2023-08-08T21:12:29.200Z,14.74
2023-08-08T21:22:32.252Z,14.76
2023-08-08T21:32:35.473Z,14.80
2023-08-08T21:42:39.041Z,14.88
2023-08-08T21:52:42.034Z,14.90
2023-08-08T22:02:45.078Z,14.86
2023-08-08T22:12:54.032Z,14.79
2023-08-08T22:23:02.966Z,14.75
2023-08-08T22:33:15.642Z,14.71
2023-08-08T22:43:18.598Z,14.78
2023-08-08T22:53:21.651Z,14.86
2023-08-08T23:03:24.703Z,14.91
2023-08-08T23:13:27.810Z,14.89
2023-08-08T23:23:30.810Z,14.82
2023-08-08T23:33:33.830Z,14.73
2023-08-08T23:43:36.801Z,14.71
2023-08-08T23:53:39.867Z,14.75
